createdAt,value
2017-11-23T00:00:28.861Z,996.5
2017-11-23T00:01:30.488Z,996.6
2017-11-23T00:02:32.005Z,996.5
2017-11-23T00:03:33.595Z,996.5
2017-11-23T00:04:35.103Z,996.5
2017-11-23T00:05:36.693Z,996.4
2017-11-23T00:06:38.229Z,996.5
2017-11-23T00:07:40.040Z,996.5
2017-11-23T00:08:41.541Z,996.5
2017-11-23T00:09:43.263Z,996.5
2017-11-23T00:10:44.764Z,996.5
2017-11-23T00:11:46.323Z,996.4
2017-11-23T00:12:47.770Z,996.4
2017-11-23T00:13:49.353Z,996.4
2017-11-23T00:14:50.868Z,996.4
2017-11-23T00:15:52.704Z,996.4
2017-11-23T00:16:54.229Z,996.3
2017-11-23T00:17:55.816Z,996.3
2017-11-23T00:18:57.349Z,996.4
2017-11-23T00:19:58.905Z,996.5
2017-11-23T00:21:00.421Z,996.4
2017-11-23T00:22:01.945Z,996.4
2017-11-23T00:23:03.473Z,996.3
2017-11-23T00:24:05.063Z,996.4
2017-11-23T00:25:06.568Z,996.4
2017-11-23T00:26:08.165Z,996.4
2017-11-23T00:27:09.675Z,996.4
2017-11-23T00:28:16.155Z,996.4
2017-11-23T00:29:17.699Z,996.3
2017-11-23T00:30:19.359Z,996.4
2017-11-23T00:31:20.899Z,996.5
2017-11-23T00:32:22.544Z,996.5
2017-11-23T00:33:24.059Z,996.5
2017-11-23T00:34:25.719Z,996.4
2017-11-23T00:35:27.291Z,996.5
2017-11-23T00:36:29.009Z,996.5
2017-11-23T00:37:30.686Z,996.6
2017-11-23T00:38:32.354Z,996.6
2017-11-23T00:39:33.974Z,996.6
2017-11-23T00:40:35.659Z,996.6
2017-11-23T00:41:37.298Z,996.6
2017-11-23T00:42:39.001Z,996.6
2017-11-23T00:43:40.633Z,996.6
2017-11-23T00:44:42.291Z,996.5
2017-11-23T00:45:43.834Z,996.5
2017-11-23T00:46:45.447Z,996.5
2017-11-23T00:47:46.956Z,996.5
2017-11-23T00:48:48.599Z,996.5
2017-11-23T00:49:50.103Z,996.5
2017-11-23T00:50:51.847Z,996.4
2017-11-23T00:51:53.384Z,996.4
2017-11-23T00:52:55.084Z,996.4
2017-11-23T00:53:56.619Z,996.4
2017-11-23T00:54:58.235Z,996.4
2017-11-23T00:55:59.779Z,996.4
2017-11-23T00:57:01.454Z,996.4
2017-11-23T00:58:02.974Z,996.4
2017-11-23T00:59:04.609Z,996.4
2017-11-23T01:00:06.159Z,996.3
2017-11-23T01:01:07.843Z,996.3
2017-11-23T01:02:09.464Z,996.3
2017-11-23T01:03:11.046Z,996.4
2017-11-23T01:04:12.566Z,996.3
2017-11-23T01:05:14.197Z,996.4
2017-11-23T01:06:15.671Z,996.4
2017-11-23T01:07:17.231Z,996.4
2017-11-23T01:08:18.792Z,996.3
2017-11-23T01:09:21.460Z,996.4
2017-11-23T01:10:23.044Z,996.3
2017-11-23T01:11:24.637Z,996.2
2017-11-23T01:12:26.184Z,996.4
2017-11-23T01:13:27.818Z,996.4
2017-11-23T01:14:29.359Z,996.4
2017-11-23T01:15:47.582Z,996.4
2017-11-23T01:16:49.091Z,996.4
2017-11-23T01:17:50.709Z,996.3
2017-11-23T01:18:52.228Z,996.4
2017-11-23T01:19:55.843Z,996.3
2017-11-23T01:20:57.408Z,996.3
2017-11-23T01:21:59.110Z,996.3
2017-11-23T01:23:00.739Z,996.3
2017-11-23T01:24:02.370Z,996.3
2017-11-23T01:25:04.090Z,996.3
2017-11-23T01:26:05.812Z,996.4
2017-11-23T01:27:07.333Z,996.3
2017-11-23T01:28:09.082Z,996.4
2017-11-23T01:29:10.675Z,996.4
2017-11-23T01:30:12.354Z,996.4
2017-11-23T01:31:13.964Z,996.4
2017-11-23T01:32:15.595Z,996.4
2017-11-23T01:33:17.103Z,996.3
2017-11-23T01:34:18.731Z,996.4
2017-11-23T01:35:20.247Z,996.4
2017-11-23T01:36:21.885Z,996.4
2017-11-23T01:37:23.370Z,996.4
2017-11-23T01:38:25.001Z,996.3
2017-11-23T01:39:26.520Z,996.3
2017-11-23T01:40:28.146Z,996.3
2017-11-23T01:41:29.709Z,996.2
2017-11-23T01:42:31.271Z,996.2
2017-11-23T01:43:33.006Z,996.2
2017-11-23T01:44:34.599Z,996.2
2017-11-23T01:45:36.201Z,996.3
2017-11-23T01:46:37.922Z,996.3
2017-11-23T01:47:39.498Z,996.2
2017-11-23T01:48:41.375Z,996.2
2017-11-23T01:49:42.976Z,996.2
2017-11-23T01:50:44.573Z,996.3
2017-11-23T01:51:46.206Z,996.2
2017-11-23T01:52:53.579Z,996.3
2017-11-23T01:53:55.164Z,996.3
2017-11-23T01:54:56.818Z,996.3
2017-11-23T01:55:58.354Z,996.4
2017-11-23T01:56:59.924Z,996.4
2017-11-23T01:58:01.459Z,996.4
2017-11-23T01:59:03.046Z,996.4
2017-11-23T02:00:04.561Z,996.5
2017-11-23T02:01:06.095Z,996.4
2017-11-23T02:02:07.646Z,996.3
2017-11-23T02:03:09.225Z,996.4
2017-11-23T02:04:10.723Z,996.5
2017-11-23T02:05:12.290Z,996.4
2017-11-23T02:06:13.828Z,996.6
2017-11-23T02:07:15.558Z,996.5
2017-11-23T02:08:17.202Z,996.5
2017-11-23T02:09:18.850Z,996.5
2017-11-23T02:10:20.477Z,996.5
2017-11-23T02:11:22.091Z,996.6
2017-11-23T02:12:23.678Z,996.6
2017-11-23T02:13:25.278Z,996.5
2017-11-23T02:14:26.861Z,996.4
2017-11-23T02:15:28.442Z,996.5
2017-11-23T02:16:30.113Z,996.5
2017-11-23T02:17:31.657Z,996.5
2017-11-23T02:18:33.326Z,996.5
2017-11-23T02:19:34.842Z,996.5
2017-11-23T02:20:36.495Z,996.5
2017-11-23T02:21:38.075Z,996.5
2017-11-23T02:22:40.722Z,996.5
2017-11-23T02:23:42.310Z,996.4
2017-11-23T02:24:43.879Z,996.5
2017-11-23T02:25:45.544Z,996.5
2017-11-23T02:26:47.153Z,996.4
2017-11-23T02:27:48.789Z,996.5
2017-11-23T02:28:50.342Z,996.5
2017-11-23T02:29:52.071Z,996.5
2017-11-23T02:30:53.609Z,996.5
2017-11-23T02:32:01.173Z,996.5
2017-11-23T02:33:02.772Z,996.5
2017-11-23T02:34:45.334Z,996.5
2017-11-23T02:35:46.726Z,996.5
2017-11-23T02:36:48.201Z,996.5
2017-11-23T02:37:49.613Z,996.4
2017-11-23T02:38:53.110Z,996.5
2017-11-23T02:39:54.546Z,996.4
2017-11-23T02:40:57.115Z,996.4
2017-11-23T02:41:58.482Z,996.2
2017-11-23T02:42:59.980Z,996.3
2017-11-23T02:44:01.430Z,996.2
2017-11-23T02:45:02.885Z,996.3
2017-11-23T02:46:04.351Z,996.2
2017-11-23T02:47:05.875Z,996.3
2017-11-23T02:48:07.275Z,996.3
2017-11-23T02:49:13.876Z,996.3
2017-11-23T02:50:15.278Z,996.3
2017-11-23T02:51:21.867Z,996.3
2017-11-23T02:52:23.284Z,996.3
2017-11-23T02:53:24.747Z,996.3
2017-11-23T02:54:26.180Z,996.2
2017-11-23T02:55:27.761Z,996.3
2017-11-23T02:56:29.249Z,996.3
2017-11-23T02:57:30.730Z,996.3
2017-11-23T02:58:32.117Z,996.3
2017-11-23T02:59:33.741Z,996.4
2017-11-23T03:00:35.161Z,996.4
2017-11-23T03:01:36.864Z,996.3
2017-11-23T03:02:38.297Z,996.3
2017-11-23T03:03:40.878Z,996.4
2017-11-23T03:04:42.409Z,996.4
2017-11-23T03:05:43.902Z,996.4
2017-11-23T03:06:45.344Z,996.4
2017-11-23T03:07:47.850Z,996.3
2017-11-23T03:08:49.295Z,996.3
2017-11-23T03:09:50.826Z,996.3
2017-11-23T03:10:52.192Z,996.3
2017-11-23T03:11:53.708Z,996.3
2017-11-23T03:12:55.127Z,996.4
2017-11-23T03:13:56.641Z,996.2
2017-11-23T03:14:58.093Z,996.3
2017-11-23T03:16:00.605Z,996.3
2017-11-23T03:17:01.993Z,996.2
2017-11-23T03:18:08.254Z,996.2
2017-11-23T03:19:09.657Z,996.3
2017-11-23T03:20:11.150Z,996.3
2017-11-23T03:21:12.586Z,996.3
2017-11-23T03:22:14.088Z,996.2
2017-11-23T03:23:15.511Z,996.2
2017-11-23T03:24:17.042Z,996.3
2017-11-23T03:25:18.469Z,996.3
2017-11-23T03:26:20.022Z,996.3
2017-11-23T03:27:21.447Z,996.3
2017-11-23T03:28:22.958Z,996.2
2017-11-23T03:29:24.413Z,996.2
2017-11-23T03:30:25.987Z,996.2
2017-11-23T03:31:27.432Z,996.1
2017-11-23T03:32:28.976Z,996.1
2017-11-23T03:33:30.448Z,996.2
2017-11-23T03:34:31.957Z,996.2
2017-11-23T03:35:33.370Z,996.2
2017-11-23T03:36:34.879Z,996.2
2017-11-23T03:37:36.289Z,996.2
2017-11-23T03:38:37.762Z,996.1
2017-11-23T03:39:39.174Z,996.2
2017-11-23T03:40:40.663Z,996.1
2017-11-23T03:41:42.061Z,996.1
2017-11-23T03:42:43.584Z,996.0
2017-11-23T03:43:44.976Z,996.0
2017-11-23T03:44:48.460Z,996.0
2017-11-23T03:45:49.904Z,996.0
2017-11-23T03:46:51.421Z,996.0
2017-11-23T03:47:52.837Z,996.0
2017-11-23T03:48:54.428Z,996.0
2017-11-23T03:49:55.860Z,996.0
2017-11-23T03:50:58.369Z,996.0
2017-11-23T03:51:59.726Z,996.0
2017-11-23T03:53:01.217Z,996.0
2017-11-23T03:54:02.716Z,996.0
2017-11-23T03:55:04.171Z,996.1
2017-11-23T03:56:05.640Z,996.1
2017-11-23T03:57:07.109Z,996.0
2017-11-23T03:58:08.502Z,996.1
2017-11-23T03:59:09.917Z,996.1
2017-11-23T04:00:11.427Z,996.1
2017-11-23T04:01:12.818Z,996.1
2017-11-23T04:02:14.313Z,996.0
2017-11-23T04:03:15.711Z,996.0
2017-11-23T04:04:17.104Z,996.1
2017-11-23T04:05:18.538Z,996.0
2017-11-23T04:06:20.049Z,995.9
2017-11-23T04:07:21.463Z,995.9
2017-11-23T04:08:22.852Z,995.9
2017-11-23T04:09:24.256Z,995.9
2017-11-23T04:10:25.786Z,995.9
2017-11-23T04:11:27.217Z,995.9
2017-11-23T04:12:28.705Z,995.9
2017-11-23T04:13:30.126Z,996.0
2017-11-23T04:14:31.723Z,996.0
2017-11-23T04:15:33.152Z,996.0
2017-11-23T04:16:34.659Z,996.1
2017-11-23T04:17:36.043Z,995.9
2017-11-23T04:18:37.489Z,996.0
2017-11-23T04:19:38.921Z,996.0
2017-11-23T04:20:40.662Z,996.0
2017-11-23T04:21:42.243Z,996.1
2017-11-23T04:22:43.969Z,996.0
2017-11-23T04:23:45.543Z,996.0
2017-11-23T04:24:47.200Z,996.0
2017-11-23T04:25:48.706Z,996.0
2017-11-23T04:26:50.296Z,996.0
2017-11-23T04:27:51.913Z,996.0
2017-11-23T04:28:53.428Z,996.0
2017-11-23T04:29:56.010Z,996.1
2017-11-23T04:30:57.517Z,996.0
2017-11-23T04:31:59.171Z,996.0
2017-11-23T04:33:00.679Z,996.0
2017-11-23T04:34:16.833Z,995.9
2017-11-23T04:35:18.339Z,995.9
2017-11-23T04:36:20.942Z,995.9
2017-11-23T04:37:22.482Z,995.8
2017-11-23T04:38:25.052Z,995.9
2017-11-23T04:39:26.593Z,995.9
2017-11-23T04:40:29.203Z,995.8
2017-11-23T04:41:30.703Z,995.8
2017-11-23T04:42:33.285Z,995.9
2017-11-23T04:43:34.834Z,995.9
2017-11-23T04:44:36.560Z,995.9
2017-11-23T04:45:38.102Z,995.9
2017-11-23T04:46:39.683Z,996.0
2017-11-23T04:47:41.219Z,995.9
2017-11-23T04:48:42.852Z,995.9
2017-11-23T04:49:44.405Z,995.9
2017-11-23T04:50:46.051Z,995.8
2017-11-23T04:51:47.660Z,996.0
2017-11-23T04:52:49.205Z,995.9
2017-11-23T04:53:50.734Z,995.9
2017-11-23T04:54:52.331Z,996.0
2017-11-23T04:55:53.833Z,996.0
2017-11-23T04:56:55.422Z,996.1
2017-11-23T04:57:56.975Z,996.1
2017-11-23T04:58:58.593Z,996.0
2017-11-23T05:00:00.063Z,995.9
2017-11-23T05:01:01.711Z,996.0
2017-11-23T05:02:03.244Z,995.9
2017-11-23T05:03:06.899Z,995.9
2017-11-23T05:04:08.415Z,995.7
2017-11-23T05:05:12.049Z,995.6
2017-11-23T05:06:13.639Z,995.8
2017-11-23T05:07:16.298Z,995.8
2017-11-23T05:08:17.863Z,995.6
2017-11-23T05:09:19.376Z,995.8
2017-11-23T05:10:20.991Z,995.8
2017-11-23T05:11:22.510Z,995.8
2017-11-23T05:12:26.115Z,995.8
2017-11-23T05:13:27.639Z,995.8
2017-11-23T05:14:29.292Z,995.8
2017-11-23T05:15:30.861Z,995.7
2017-11-23T05:16:37.399Z,995.9
2017-11-23T05:17:38.982Z,995.8
2017-11-23T05:18:40.636Z,995.9
2017-11-23T05:19:42.298Z,995.9
2017-11-23T05:20:43.822Z,996.0
2017-11-23T05:21:46.501Z,996.0
2017-11-23T05:22:48.177Z,996.0
2017-11-23T05:23:50.769Z,996.0
2017-11-23T05:24:52.369Z,996.0
2017-11-23T05:25:53.961Z,996.0
2017-11-23T05:26:55.587Z,995.9
2017-11-23T05:27:57.253Z,996.1
2017-11-23T05:28:58.817Z,996.1
2017-11-23T05:30:00.378Z,996.0
2017-11-23T05:31:01.987Z,996.0
2017-11-23T05:32:03.646Z,996.0
2017-11-23T05:33:05.154Z,996.0
2017-11-23T05:34:06.761Z,996.0
2017-11-23T05:35:08.270Z,996.0
2017-11-23T05:36:09.945Z,996.1
2017-11-23T05:37:11.491Z,996.0
2017-11-23T05:38:13.110Z,996.1
2017-11-23T05:39:14.613Z,995.9
2017-11-23T05:40:16.259Z,996.1
2017-11-23T05:41:17.714Z,996.0
2017-11-23T05:42:19.318Z,996.0
2017-11-23T05:43:20.927Z,996.0
2017-11-23T05:44:22.580Z,996.1
2017-11-23T05:45:24.178Z,996.2
2017-11-23T05:46:25.828Z,996.2
2017-11-23T05:47:27.427Z,996.2
2017-11-23T05:48:29.290Z,996.2
2017-11-23T05:49:30.844Z,996.2
2017-11-23T05:50:32.596Z,996.2
2017-11-23T05:51:34.294Z,996.1
2017-11-23T05:52:35.982Z,996.2
2017-11-23T05:53:37.557Z,996.2
2017-11-23T05:54:39.614Z,996.2
2017-11-23T05:55:41.150Z,996.2
2017-11-23T05:56:42.744Z,996.2
2017-11-23T05:57:44.344Z,996.3
2017-11-23T05:58:45.965Z,996.3
2017-11-23T05:59:47.470Z,996.3
2017-11-23T06:00:49.068Z,996.3
2017-11-23T06:01:50.647Z,996.3
2017-11-23T06:02:52.267Z,996.3
2017-11-23T06:03:53.774Z,996.3
2017-11-23T06:04:55.288Z,996.4
2017-11-23T06:05:56.832Z,996.3
2017-11-23T06:06:58.335Z,996.3
2017-11-23T06:07:59.842Z,996.4
2017-11-23T06:09:01.472Z,996.4
2017-11-23T06:10:03.191Z,996.3
2017-11-23T06:11:09.448Z,996.3
2017-11-23T06:12:11.335Z,996.2
2017-11-23T06:13:12.918Z,996.2
2017-11-23T06:14:14.460Z,996.4
2017-11-23T06:15:17.082Z,996.3
2017-11-23T06:16:18.689Z,996.4
2017-11-23T06:17:21.344Z,996.3
2017-11-23T06:18:22.944Z,996.3
2017-11-23T06:19:24.528Z,996.3
2017-11-23T06:20:26.132Z,996.3
2017-11-23T06:21:27.695Z,996.3
2017-11-23T06:22:29.330Z,996.3
2017-11-23T06:23:31.116Z,996.3
2017-11-23T06:24:32.732Z,996.3
2017-11-23T06:25:34.521Z,996.3
2017-11-23T06:26:36.126Z,996.2
2017-11-23T06:27:38.048Z,996.2
2017-11-23T06:28:39.689Z,996.3
2017-11-23T06:29:41.245Z,996.2
2017-11-23T06:30:42.776Z,996.3
2017-11-23T06:31:44.451Z,996.2
2017-11-23T06:32:46.184Z,996.2
2017-11-23T06:33:47.731Z,996.3
2017-11-23T06:34:49.332Z,996.2
2017-11-23T06:35:50.999Z,996.2
2017-11-23T06:36:52.499Z,996.3
2017-11-23T06:37:54.202Z,996.3
2017-11-23T06:38:55.784Z,996.1
2017-11-23T06:39:57.459Z,996.2
2017-11-23T06:41:01.228Z,996.2
2017-11-23T06:42:02.941Z,996.2
2017-11-23T06:43:04.881Z,996.2
2017-11-23T06:44:06.586Z,996.2
2017-11-23T06:45:08.337Z,996.1
2017-11-23T06:46:10.045Z,996.0
2017-11-23T06:47:11.928Z,996.2
2017-11-23T06:48:13.574Z,996.0
2017-11-23T06:49:15.288Z,996.0
2017-11-23T06:50:16.892Z,996.1
2017-11-23T06:51:19.615Z,996.1
2017-11-23T06:52:21.268Z,996.1
2017-11-23T06:53:23.952Z,996.1
2017-11-23T06:54:25.576Z,996.2
2017-11-23T06:55:27.204Z,996.2
2017-11-23T06:56:28.780Z,996.2
2017-11-23T06:57:30.509Z,996.1
2017-11-23T06:58:32.134Z,996.1
2017-11-23T06:59:33.886Z,996.3
2017-11-23T07:00:35.464Z,996.3
2017-11-23T07:01:37.310Z,996.2
2017-11-23T07:02:39.190Z,996.3
2017-11-23T07:03:40.839Z,996.2
2017-11-23T07:04:42.506Z,996.4
2017-11-23T07:05:44.304Z,996.4
2017-11-23T07:06:45.962Z,996.4
2017-11-23T07:07:47.730Z,996.3
2017-11-23T07:08:49.389Z,996.4
2017-11-23T07:09:51.242Z,996.3
2017-11-23T07:10:52.927Z,996.5
2017-11-23T07:11:55.556Z,996.4
2017-11-23T07:12:57.121Z,996.4
2017-11-23T07:13:58.763Z,996.3
2017-11-23T07:15:00.342Z,996.4
2017-11-23T07:16:01.909Z,996.4
2017-11-23T07:17:03.503Z,996.5
2017-11-23T07:18:05.192Z,996.4
2017-11-23T07:19:06.836Z,996.2
2017-11-23T07:20:09.624Z,996.5
2017-11-23T07:21:11.257Z,996.5
2017-11-23T07:22:13.919Z,996.4
2017-11-23T07:23:15.469Z,996.4
2017-11-23T07:24:17.163Z,996.6
2017-11-23T07:25:18.671Z,996.6
2017-11-23T07:26:20.279Z,996.5
2017-11-23T07:27:21.909Z,996.4
2017-11-23T07:28:23.564Z,996.6
2017-11-23T07:29:25.128Z,996.5
2017-11-23T07:30:26.772Z,996.5
2017-11-23T07:31:28.278Z,996.4
2017-11-23T07:32:29.876Z,996.4
2017-11-23T07:33:31.480Z,996.4
2017-11-23T07:34:33.068Z,996.4
2017-11-23T07:35:34.586Z,996.6
2017-11-23T07:36:36.218Z,996.5
2017-11-23T07:37:37.789Z,996.5
2017-11-23T07:38:39.385Z,996.5
2017-11-23T07:39:41.012Z,996.6
2017-11-23T07:40:42.532Z,996.5
2017-11-23T07:41:44.249Z,996.6
2017-11-23T07:42:45.789Z,996.5
2017-11-23T07:43:47.336Z,996.5
2017-11-23T07:44:48.959Z,996.5
2017-11-23T07:45:51.888Z,996.7
2017-11-23T07:46:53.609Z,996.7
2017-11-23T07:47:55.420Z,996.7
2017-11-23T07:48:56.955Z,996.6
2017-11-23T07:49:59.017Z,996.7
2017-11-23T07:51:01.205Z,996.6
2017-11-23T07:52:02.849Z,996.7
2017-11-23T07:53:04.561Z,996.7
2017-11-23T07:54:07.349Z,996.7
2017-11-23T07:55:08.959Z,996.7
2017-11-23T07:56:10.650Z,996.7
2017-11-23T07:57:12.259Z,996.7
2017-11-23T07:58:13.914Z,996.8
2017-11-23T07:59:15.563Z,996.9
2017-11-23T08:00:17.209Z,996.9
2017-11-23T08:01:18.781Z,996.9
2017-11-23T08:02:20.517Z,996.8
2017-11-23T08:03:22.026Z,996.8
2017-11-23T08:04:23.787Z,996.8
2017-11-23T08:05:25.365Z,996.9
2017-11-23T08:06:26.947Z,997.0
2017-11-23T08:07:28.678Z,996.9
2017-11-23T08:08:30.829Z,997.0
2017-11-23T08:09:32.372Z,996.9
2017-11-23T08:10:34.957Z,996.9
2017-11-23T08:11:36.525Z,996.8
2017-11-23T08:12:38.211Z,996.8
2017-11-23T08:13:39.841Z,996.9
2017-11-23T08:14:41.410Z,996.9
2017-11-23T08:15:43.006Z,997.0
2017-11-23T08:16:44.614Z,997.1
2017-11-23T08:17:46.156Z,997.0
2017-11-23T08:18:47.867Z,996.9
2017-11-23T08:19:49.420Z,996.8
2017-11-23T08:20:51.121Z,997.0
2017-11-23T08:21:52.797Z,997.0
2017-11-23T08:22:54.410Z,996.9
2017-11-23T08:23:56.036Z,997.0
2017-11-23T08:24:57.713Z,997.0
2017-11-23T08:25:59.241Z,997.0
2017-11-23T08:27:00.942Z,997.0
2017-11-23T08:28:02.553Z,997.1
2017-11-23T08:29:04.234Z,997.1
2017-11-23T08:30:05.861Z,997.1
2017-11-23T08:31:07.531Z,997.1
2017-11-23T08:32:09.116Z,997.1
2017-11-23T08:33:10.728Z,997.1
2017-11-23T08:34:12.267Z,997.1
2017-11-23T08:35:13.968Z,997.2
2017-11-23T08:36:15.517Z,997.1
2017-11-23T08:37:18.167Z,997.1
2017-11-23T08:38:19.697Z,997.0
2017-11-23T08:39:22.556Z,997.1
2017-11-23T08:40:24.316Z,997.2
2017-11-23T08:41:25.998Z,997.2
2017-11-23T08:42:27.515Z,997.1
2017-11-23T08:43:29.190Z,997.1
2017-11-23T08:44:30.892Z,997.1
2017-11-23T08:45:32.602Z,997.1
2017-11-23T08:46:34.259Z,997.1
2017-11-23T08:47:35.946Z,997.1
2017-11-23T08:48:37.546Z,997.1
2017-11-23T08:49:40.188Z,997.2
2017-11-23T08:50:41.801Z,997.2
2017-11-23T08:51:43.523Z,997.3
2017-11-23T08:52:45.149Z,997.4
2017-11-23T08:53:46.732Z,997.4
2017-11-23T08:54:48.464Z,997.3
2017-11-23T08:55:50.081Z,997.4
2017-11-23T08:56:51.813Z,997.4
2017-11-23T08:57:53.389Z,997.4
2017-11-23T08:58:55.000Z,997.4
2017-11-23T08:59:57.575Z,997.4
2017-11-23T09:00:59.160Z,997.4
2017-11-23T09:02:01.835Z,997.4
2017-11-23T09:03:03.366Z,997.4
2017-11-23T09:04:06.070Z,997.4
2017-11-23T09:05:07.701Z,997.3
2017-11-23T09:06:09.292Z,997.4
2017-11-23T09:07:11.062Z,997.3
2017-11-23T09:08:13.809Z,997.3
2017-11-23T09:09:15.418Z,997.4
2017-11-23T09:10:17.035Z,997.3
2017-11-23T09:11:18.559Z,997.5
2017-11-23T09:12:21.338Z,997.4
2017-11-23T09:13:22.941Z,997.4
2017-11-23T09:14:24.595Z,997.4
2017-11-23T09:15:27.158Z,997.5
2017-11-23T09:16:28.737Z,997.5
2017-11-23T09:17:30.259Z,997.5
2017-11-23T09:18:32.855Z,997.5
2017-11-23T09:19:34.392Z,997.6
2017-11-23T09:20:36.108Z,997.5
2017-11-23T09:21:37.915Z,997.5
2017-11-23T09:22:39.543Z,997.6
2017-11-23T09:23:41.145Z,997.5
2017-11-23T09:24:43.781Z,997.6
2017-11-23T09:25:45.333Z,997.6
2017-11-23T09:26:46.907Z,997.6
2017-11-23T09:27:48.434Z,997.6
2017-11-23T09:28:50.085Z,997.6
2017-11-23T09:29:51.729Z,997.7
2017-11-23T09:30:53.375Z,997.6
2017-11-23T09:31:54.984Z,997.6
2017-11-23T09:32:56.693Z,997.6
2017-11-23T09:33:58.350Z,997.6
2017-11-23T09:34:59.948Z,997.6
2017-11-23T09:36:01.465Z,997.7
2017-11-23T09:37:03.081Z,997.7
2017-11-23T09:38:04.640Z,997.8
2017-11-23T09:39:06.308Z,997.8
2017-11-23T09:40:07.953Z,997.8
2017-11-23T09:41:14.522Z,997.7
2017-11-23T09:42:16.078Z,997.7
2017-11-23T09:43:17.720Z,997.8
2017-11-23T09:44:19.316Z,997.8
2017-11-23T09:45:20.890Z,997.8
2017-11-23T09:46:22.610Z,997.9
2017-11-23T09:47:24.264Z,997.9
2017-11-23T09:48:25.872Z,997.8
2017-11-23T09:49:27.480Z,997.9
2017-11-23T09:50:29.117Z,997.9
2017-11-23T09:51:30.864Z,997.9
2017-11-23T09:52:32.485Z,997.9
2017-11-23T09:53:34.122Z,997.9
2017-11-23T09:54:35.658Z,997.9
2017-11-23T09:55:37.327Z,997.8
2017-11-23T09:56:38.836Z,997.8
2017-11-23T09:57:40.677Z,997.8
2017-11-23T09:58:42.227Z,997.8
2017-11-23T09:59:43.874Z,997.8
2017-11-23T10:00:45.618Z,997.9
2017-11-23T10:01:47.261Z,997.8
2017-11-23T10:02:48.800Z,997.9
2017-11-23T10:03:50.463Z,997.9
2017-11-23T10:04:52.233Z,997.9
2017-11-23T10:05:53.836Z,997.8
2017-11-23T10:06:55.441Z,997.9
2017-11-23T10:07:58.044Z,997.9
2017-11-23T10:08:59.588Z,997.9
2017-11-23T10:10:01.210Z,997.8
2017-11-23T10:11:02.798Z,997.9
2017-11-23T10:12:04.460Z,997.9
2017-11-23T10:13:06.011Z,997.7
2017-11-23T10:14:07.667Z,997.9
2017-11-23T10:15:09.291Z,997.9
2017-11-23T10:16:11.986Z,997.9
2017-11-23T10:17:13.623Z,997.8
2017-11-23T10:18:15.272Z,997.8
2017-11-23T10:19:17.746Z,997.8
2017-11-23T10:20:19.385Z,997.8
2017-11-23T10:21:20.962Z,997.7
2017-11-23T10:22:22.648Z,997.7
2017-11-23T10:23:24.784Z,997.8
2017-11-23T10:24:25.833Z,997.7
2017-11-23T10:25:27.458Z,997.7
2017-11-23T10:26:28.963Z,997.8
2017-11-23T10:27:30.562Z,997.8
2017-11-23T10:28:32.191Z,997.8
2017-11-23T10:29:34.347Z,997.8
2017-11-23T10:30:35.917Z,997.8
2017-11-23T10:31:38.330Z,997.8
2017-11-23T10:32:39.936Z,997.8
2017-11-23T10:33:41.506Z,997.8
2017-11-23T10:34:43.126Z,997.7
2017-11-23T10:35:44.782Z,997.7
2017-11-23T10:36:46.451Z,997.7
2017-11-23T10:37:48.120Z,997.7
2017-11-23T10:38:49.744Z,997.5
2017-11-23T10:39:51.283Z,997.5
2017-11-23T10:40:53.514Z,997.7
2017-11-23T10:41:55.179Z,997.8
2017-11-23T10:42:57.737Z,997.7
2017-11-23T10:44:00.127Z,997.7
2017-11-23T10:45:01.708Z,997.7
2017-11-23T10:46:03.302Z,997.7
2017-11-23T10:47:04.909Z,997.6
2017-11-23T10:48:06.524Z,997.6
2017-11-23T10:49:09.554Z,997.6
2017-11-23T10:50:11.164Z,997.7
2017-11-23T10:51:12.875Z,997.7
2017-11-23T10:52:14.478Z,997.6
2017-11-23T10:53:16.121Z,997.6
2017-11-23T10:54:17.789Z,997.6
2017-11-23T10:55:19.507Z,997.6
2017-11-23T10:56:21.246Z,997.5
2017-11-23T10:57:23.011Z,997.6
2017-11-23T10:58:25.381Z,997.6
2017-11-23T10:59:27.194Z,997.6
2017-11-23T11:00:28.919Z,997.5
2017-11-23T11:01:30.506Z,997.5
2017-11-23T11:02:32.127Z,997.5
2017-11-23T11:03:34.485Z,997.5
2017-11-23T11:04:36.154Z,997.5
2017-11-23T11:05:37.768Z,997.5
2017-11-23T11:06:39.394Z,997.5
2017-11-23T11:07:40.971Z,997.6
2017-11-23T11:08:42.547Z,997.6
2017-11-23T11:09:44.433Z,997.5
2017-11-23T11:10:46.215Z,997.6
2017-11-23T11:11:47.868Z,997.6
2017-11-23T11:12:49.605Z,997.6
2017-11-23T11:13:51.234Z,997.6
2017-11-23T11:14:52.853Z,997.7
2017-11-23T11:15:55.572Z,997.7
2017-11-23T11:16:57.363Z,997.6
2017-11-23T11:17:59.114Z,997.7
2017-11-23T11:19:01.801Z,997.7
2017-11-23T11:20:03.538Z,997.7
2017-11-23T11:21:05.212Z,997.7
2017-11-23T11:22:07.004Z,997.7
2017-11-23T11:23:08.615Z,997.6
2017-11-23T11:24:10.197Z,997.5
2017-11-23T11:25:11.884Z,997.5
2017-11-23T11:26:13.516Z,997.5
2017-11-23T11:27:15.235Z,997.5
2017-11-23T11:28:16.924Z,997.5
2017-11-23T11:29:18.699Z,997.6
2017-11-23T11:30:20.340Z,997.6
2017-11-23T11:31:22.083Z,997.6
2017-11-23T11:32:23.789Z,997.7
2017-11-23T11:33:25.542Z,997.8
2017-11-23T11:34:27.209Z,997.8
2017-11-23T11:35:28.858Z,997.8
2017-11-23T11:36:30.541Z,997.8
2017-11-23T11:37:32.178Z,997.8
2017-11-23T11:38:33.911Z,997.9
2017-11-23T11:39:37.393Z,998.0
2017-11-23T11:40:39.243Z,998.0
2017-11-23T11:41:40.762Z,998.0
2017-11-23T11:42:42.389Z,998.1
2017-11-23T11:43:44.048Z,998.1
2017-11-23T11:44:45.697Z,998.1
2017-11-23T11:45:47.434Z,998.1
2017-11-23T11:46:49.188Z,998.1
2017-11-23T11:47:50.790Z,998.1
2017-11-23T11:48:52.538Z,998.0
2017-11-23T11:49:54.259Z,998.0
2017-11-23T11:50:55.912Z,998.0
2017-11-23T11:51:57.649Z,998.0
2017-11-23T11:52:59.409Z,998.0
2017-11-23T11:54:01.118Z,998.0
2017-11-23T11:55:02.878Z,997.9
2017-11-23T11:56:04.512Z,997.9
2017-11-23T11:57:06.256Z,997.8
2017-11-23T11:58:07.877Z,997.9
2017-11-23T11:59:09.643Z,997.9
2017-11-23T12:00:11.307Z,997.9
2017-11-23T12:01:12.926Z,997.8
2017-11-23T12:02:14.676Z,997.8
2017-11-23T12:03:17.534Z,997.8
2017-11-23T12:04:19.119Z,997.8
2017-11-23T12:05:20.851Z,997.8
2017-11-23T12:06:22.404Z,997.7
2017-11-23T12:07:23.963Z,997.7
2017-11-23T12:08:25.569Z,997.7
2017-11-23T12:09:27.153Z,997.8
2017-11-23T12:10:29.766Z,997.9
2017-11-23T12:11:31.344Z,997.9
2017-11-23T12:12:33.016Z,997.8
2017-11-23T12:13:34.609Z,997.8
2017-11-23T12:14:36.303Z,997.8
2017-11-23T12:15:37.950Z,997.8
2017-11-23T12:16:39.735Z,997.8
2017-11-23T12:17:41.340Z,997.7
2017-11-23T12:18:43.150Z,997.7
2017-11-23T12:19:44.779Z,997.8
2017-11-23T12:20:46.389Z,997.7
2017-11-23T12:21:48.338Z,997.8
2017-11-23T12:22:49.971Z,997.6
2017-11-23T12:23:51.693Z,997.6
2017-11-23T12:24:53.505Z,997.6
2017-11-23T12:25:55.268Z,997.6
2017-11-23T12:26:56.845Z,997.6
2017-11-23T12:27:58.505Z,997.6
2017-11-23T12:29:00.262Z,997.6
2017-11-23T12:30:02.279Z,997.6
2017-11-23T12:31:04.007Z,997.6
2017-11-23T12:32:05.649Z,997.6
2017-11-23T12:33:07.208Z,997.6
2017-11-23T12:34:08.830Z,997.6
2017-11-23T12:35:10.466Z,997.6
2017-11-23T12:36:12.168Z,997.6
2017-11-23T12:37:13.776Z,997.7
2017-11-23T12:38:15.352Z,997.6
2017-11-23T12:39:16.968Z,997.7
2017-11-23T12:40:18.577Z,997.6
2017-11-23T12:41:20.258Z,997.5
2017-11-23T12:42:22.059Z,997.5
2017-11-23T12:43:23.840Z,997.6
2017-11-23T12:44:25.529Z,997.5
2017-11-23T12:45:27.258Z,997.5
2017-11-23T12:46:28.865Z,997.5
2017-11-23T12:47:30.473Z,997.5
2017-11-23T12:48:32.291Z,997.6
2017-11-23T12:49:33.844Z,997.5
2017-11-23T12:50:35.423Z,997.5
2017-11-23T12:51:37.031Z,997.4
2017-11-23T12:52:38.667Z,997.4
2017-11-23T12:53:40.257Z,997.5
2017-11-23T12:54:42.099Z,997.4
2017-11-23T12:55:43.942Z,997.5
2017-11-23T12:56:45.629Z,997.5
2017-11-23T12:57:47.369Z,997.5
2017-11-23T12:58:49.142Z,997.4
2017-11-23T12:59:50.807Z,997.4
2017-11-23T13:00:52.639Z,997.4
2017-11-23T13:01:54.748Z,997.4
2017-11-23T13:02:56.522Z,997.4
2017-11-23T13:04:00.229Z,997.5
2017-11-23T13:05:01.933Z,997.5
2017-11-23T13:06:03.569Z,997.5
2017-11-23T13:07:05.473Z,997.5
2017-11-23T13:08:07.130Z,997.5
2017-11-23T13:09:10.083Z,997.5
2017-11-23T13:10:11.738Z,997.5
2017-11-23T13:11:13.421Z,997.5
2017-11-23T13:12:15.151Z,997.5
2017-11-23T13:13:16.828Z,997.6
2017-11-23T13:14:18.637Z,997.6
2017-11-23T13:15:20.425Z,997.6
2017-11-23T13:16:22.224Z,997.6